Spaceon02064 — ASD — position and weather

sailwx.info

Track history (hours):
 
Tides and Currents Weather Stations Pressure Air Temp Water Temp Dewpoint Dewpoint Depression Visibility Wind Speed Wind Dir Waves Ship Positions

Spaceon02064

Last reported at 2016-Aug-25 10:33 UTC. Time now 2016-Aug-25 11:27 UTC.
Position N 21°19' E 110°25'.

Length 6 m.

Type: Ship. MMSI: 200902064.

Date/timePositionNaut miles runAvg speedWind from/ knotsBaromVisibWave heightAir tempDewpointWater temp
2016-Aug-25 10:33N 21°19' E 110°25'1126160.4
2016-Aug-25 03:31N 38°58' E 117°46'1 0.6
2016-Aug-25 02:27N 38°58' E 117°45'0 0.0
2016-Aug-25 01:32N 38°58' E 117°45'0 0.0
2016-Aug-25 00:31N 38°58' E 117°45'0 0.1
2016-Aug-24 23:33N 38°59' E 117°45'0 0.0
2016-Aug-24 22:27N 38°59' E 117°45'0 0.1
2016-Aug-24 21:31N 38°59' E 117°45'1 1.0
2016-Aug-24 20:32N 38°58' E 117°46'49181.9
2016-Aug-24 14:33N 31°22' E 121°30'2 2.0
2016-Aug-24 13:28N 31°22' E 121°28'0 0.0
2016-Aug-24 12:31N 31°22' E 121°28'0 0.0
2016-Aug-24 11:13N 31°22' E 121°28'0 0.0
2016-Aug-24 10:31N 31°22' E 121°28'0 0.0
2016-Aug-24 09:25N 31°22' E 121°28'0 0.0
2016-Aug-24 08:31N 31°22' E 121°28'0 0.0
2016-Aug-24 07:31N 31°22' E 121°28'0 0.0
2016-Aug-24 06:28N 31°22' E 121°28'0 0.0
2016-Aug-24 04:31N 31°22' E 121°28'0 0.0
2016-Aug-24 03:25N 31°22' E 121°28'0 0.0
2016-Aug-24 02:30N 31°22' E 121°28'0 0.0
2016-Aug-24 01:21N 31°22' E 121°28'0 0.0
2016-Aug-24 00:33N 31°22' E 121°28'100213.6
2016-Aug-24 00:05N 29°46' E 122°04'7 9.5
2016-Aug-23 23:21N 29°52' E 122°08'6 8.0
2016-Aug-23 22:33N 29°57' E 122°04'8914.3
2016-Aug-23 16:18N 31°21' E 121°26'6 1.2
2016-Aug-23 11:33N 31°26' E 121°29'10 4.6
2016-Aug-23 09:26N 31°21' E 121°39'6 6.5
2016-Aug-23 08:33N 31°23' E 121°33'3 2.8
2016-Aug-23 07:33N 31°21' E 121°32'1 0.7
2016-Aug-23 06:31N 31°20' E 121°32'1 1.0
2016-Aug-23 05:33N 31°20' E 121°33'5 4.2
2016-Aug-23 04:28N 31°16' E 121°32'8 1.2
2016-Aug-22 22:13N 31°21' E 121°26'2 2.2
2016-Aug-22 21:29N 31°22' E 121°28'7 6.8
2016-Aug-22 20:24N 31°16' E 121°32'722.2
2016-Aug-22 20:05N 31°22' E 121°28'0 0.0
2016-Aug-22 19:29N 31°22' E 121°28'0 0.1
2016-Aug-22 18:29N 31°22' E 121°28'799.4
2016-Aug-22 18:24N 31°16' E 121°32'7 7.8
2016-Aug-22 17:28N 31°22' E 121°28'0 0.0
2016-Aug-22 16:10N 31°22' E 121°28'0 0.0
2016-Aug-22 15:31N 31°22' E 121°28'7 6.2
2016-Aug-22 14:21N 31°16' E 121°32'757.0
2016-Aug-22 14:13N 31°22' E 121°28'7 8.8
2016-Aug-22 13:24N 31°16' E 121°32'726.2
2016-Aug-22 13:07N 31°22' E 121°28'0 0.0
2016-Aug-22 12:28N 31°22' E 121°28'0 0.0
2016-Aug-22 11:28N 31°22' E 121°28'7103.3
2016-Aug-22 11:24N 31°16' E 121°32'7 7.8
2016-Aug-22 10:28N 31°22' E 121°28'740.7
2016-Aug-22 10:17N 31°16' E 121°32'7 8.8
2016-Aug-22 09:28N 31°22' E 121°28'0 0.0
2016-Aug-22 08:16N 31°22' E 121°28'7285.0
2016-Aug-22 08:14N 31°15' E 121°32'7 9.4
2016-Aug-22 07:28N 31°22' E 121°28'722.9
2016-Aug-22 07:08N 31°15' E 121°33'4 6.6
2016-Aug-22 06:33N 31°19' E 121°34'512.3
2016-Aug-22 06:07N 31°22' E 121°28'4 2.5
2016-Aug-22 04:27N 31°20' E 121°32'0 0.1
2016-Aug-22 03:30N 31°20' E 121°32'4101.1
2016-Aug-22 03:28N 31°22' E 121°28'4 4.5
2016-Aug-22 02:33N 31°20' E 121°32'446.1
2016-Aug-22 02:28N 31°22' E 121°28'0 0.1
2016-Aug-22 01:34N 31°22' E 121°28'3160.3
2016-Aug-22 01:32N 31°21' E 121°31'0 0.0
2016-Aug-22 00:32N 31°21' E 121°31'338.2
2016-Aug-22 00:28N 31°22' E 121°28'3 3.1
2016-Aug-21 23:32N 31°21' E 121°31'3120.8
2016-Aug-21 23:31N 31°22' E 121°28'3 2.8
2016-Aug-21 22:29N 31°21' E 121°31'3 8.9
2016-Aug-21 22:10N 31°22' E 121°28'3 3.9
2016-Aug-21 21:26N 31°21' E 121°31'324.0
2016-Aug-21 21:19N 31°22' E 121°28'3 3.8
2016-Aug-21 20:33N 31°21' E 121°31'314.7
2016-Aug-21 20:22N 31°22' E 121°28'3 3.4
2016-Aug-21 19:32N 31°21' E 121°31'3 9.0
2016-Aug-21 19:13N 31°22' E 121°28'0 0.0
2016-Aug-21 18:28N 31°22' E 121°28'3270.3
2016-Aug-21 18:27N 31°21' E 121°31'3 3.2
2016-Aug-21 17:33N 31°22' E 121°28'3513.3
2016-Aug-21 17:33N 31°21' E 121°31'3 2.4
2016-Aug-21 16:22N 31°22' E 121°28'3201.8
2016-Aug-21 16:21N 31°21' E 121°31'0 0.0
2016-Aug-21 15:33N 31°21' E 121°31'3 9.9
2016-Aug-21 15:16N 31°22' E 121°28'3 3.5
2016-Aug-21 14:28N 31°21' E 121°31'313.4
2016-Aug-21 14:15N 31°22' E 121°28'0 0.1
2016-Aug-21 13:33N 31°22' E 121°28'369.7
2016-Aug-21 13:31N 31°21' E 121°31'4 4.6
2016-Aug-21 12:33N 31°17' E 121°34'763.3
2016-Aug-21 12:27N 31°22' E 121°28'84618245.3
2016-Aug-21 12:24N 21°19' E 110°25'0 0.0
2016-Aug-21 11:33N 21°19' E 110°25'846117185.1
2016-Aug-21 11:33N 31°22' E 121°28'739.5
2016-Aug-21 11:22N 31°16' E 121°32'7 8.9
2016-Aug-21 10:33N 31°22' E 121°28'7274.2
2016-Aug-21 10:32N 31°15' E 121°32'7 7.1
2016-Aug-21 09:30N 31°22' E 121°28'0 0.0
2016-Aug-21 08:33N 31°22' E 121°28'0 0.0
2016-Aug-21 07:30N 31°22' E 121°28'0 0.0
2016-Aug-21 06:30N 31°22' E 121°28'0 0.0
2016-Aug-21 05:33N 31°22' E 121°28'0 0.0
2016-Aug-21 04:30N 31°22' E 121°28'735.7
2016-Aug-21 04:18N 31°16' E 121°32'7 9.7
2016-Aug-21 03:33N 31°22' E 121°28'716.0
2016-Aug-21 03:06N 31°15' E 121°32'0 0.0
2016-Aug-21 01:21N 31°16' E 121°32'0 0.0
2016-Aug-21 00:21N 31°16' E 121°32'0 0.1
2016-Aug-20 23:33N 31°16' E 121°32'0 0.0
2016-Aug-20 22:27N 31°16' E 121°32'0 0.0
2016-Aug-20 21:33N 31°16' E 121°32'0 0.0
2016-Aug-20 20:06N 31°16' E 121°32'0 0.0
2016-Aug-20 19:12N 31°16' E 121°32'0 0.0
2016-Aug-20 16:23N 31°16' E 121°32'0 0.0
2016-Aug-20 12:11N 31°16' E 121°32'8451329.7
2016-Aug-20 11:33N 21°19' E 110°25'84536654.3
2016-Aug-20 11:32N 31°16' E 121°32'845852.7
2016-Aug-20 10:32N 21°19' E 110°25'84576060.7
2016-Aug-20 10:31N 31°16' E 121°32'0 0.0
2016-Aug-20 09:22N 31°16' E 121°32'0 0.0
2016-Aug-20 08:17N 31°16' E 121°32'0 0.0
2016-Aug-20 07:28N 31°16' E 121°32'0 0.0
2016-Aug-19 22:13N 31°15' E 121°32'0 0.0
2016-Aug-19 14:22N 31°15' E 121°32'6 5.9
2016-Aug-19 13:19N 31°11' E 121°28'4 4.2
2016-Aug-19 12:17N 31°07' E 121°28'0 0.0
2016-Aug-19 10:26N 31°07' E 121°28'5 1.3
2016-Aug-19 06:20N 31°12' E 121°29'4 5.1
2016-Aug-19 05:33N 31°15' E 121°32'6 5.9
2016-Aug-19 04:33N 31°21' E 121°31'5 5.3
2016-Aug-19 03:33N 31°22' E 121°37'85352.1
2016-Aug-18 11:10N 21°19' E 110°25'0 0.0
2016-Aug-18 10:27N 21°19' E 110°25'0 0.0
2016-Aug-18 09:33N 21°19' E 110°25'0 0.0
2016-Aug-18 08:31N 21°19' E 110°25'0 0.1
2016-Aug-18 07:32N 21°19' E 110°25'0 0.1
2016-Aug-18 06:33N 21°19' E 110°25'0 0.1
2016-Aug-18 05:33N 21°19' E 110°25'0 0.0
2016-Aug-18 04:31N 21°19' E 110°25'0 0.0
2016-Aug-18 03:33N 21°19' E 110°25'0 0.0
2016-Aug-18 00:33N 21°19' E 110°25'85492.2
2016-Aug-17 15:18N 31°17' E 121°44'4 5.2
2016-Aug-17 14:33N 31°20' E 121°41'5 5.4
2016-Aug-17 13:33N 31°23' E 121°36'4 4.4
2016-Aug-17 12:33N 31°21' E 121°31'6 6.2
2016-Aug-17 11:33N 31°15' E 121°32'8453408.9
2016-Aug-17 11:18N 21°19' E 110°25'0 0.0
2016-Aug-17 10:31N 21°19' E 110°25'8388721.3
2016-Aug-17 10:25N 31°10' E 121°28'6 1.0
2016-Aug-17 04:33N 31°15' E 121°31'6 5.9
2016-Aug-17 03:33N 31°21' E 121°32'4 4.3
2016-Aug-17 02:33N 31°23' E 121°36'85256.0
2016-Aug-16 11:20N 21°19' E 110°25'0 0.0
2016-Aug-16 10:23N 21°19' E 110°25'1126114.0
2016-Aug-16 00:30N 38°58' E 117°47'2 1.5
2016-Aug-15 23:26N 38°59' E 117°45'0 0.0
2016-Aug-15 22:33N 38°59' E 117°45'0 0.0
2016-Aug-15 21:30N 38°59' E 117°45'  
Track history (hours):
 
Tides and Currents Weather Stations Pressure Air Temp Water Temp Dewpoint Dewpoint Depression Visibility Wind Speed Wind Dir Waves Ship Positions

Spaceon02064

Last reported at 2016-Aug-25 10:33 UTC. Time now 2016-Aug-25 11:27 UTC.
Position N 21°19' E 110°25'.

Length 6 m.

Type: Ship. MMSI: 200902064.

Date/timePositionNaut miles runAvg speedWind from/ knotsBaromVisibWave heightAir tempDewpointWater temp
2016-Aug-25 10:33N 21°19' E 110°25'1126160.4
2016-Aug-25 03:31N 38°58' E 117°46'1 0.6
2016-Aug-25 02:27N 38°58' E 117°45'0 0.0
2016-Aug-25 01:32N 38°58' E 117°45'0 0.0
2016-Aug-25 00:31N 38°58' E 117°45'0 0.1
2016-Aug-24 23:33N 38°59' E 117°45'0 0.0
2016-Aug-24 22:27N 38°59' E 117°45'0 0.1
2016-Aug-24 21:31N 38°59' E 117°45'1 1.0
2016-Aug-24 20:32N 38°58' E 117°46'49181.9
2016-Aug-24 14:33N 31°22' E 121°30'2 2.0
2016-Aug-24 13:28N 31°22' E 121°28'0 0.0
2016-Aug-24 12:31N 31°22' E 121°28'0 0.0
2016-Aug-24 11:13N 31°22' E 121°28'0 0.0
2016-Aug-24 10:31N 31°22' E 121°28'0 0.0
2016-Aug-24 09:25N 31°22' E 121°28'0 0.0
2016-Aug-24 08:31N 31°22' E 121°28'0 0.0
2016-Aug-24 07:31N 31°22' E 121°28'0 0.0
2016-Aug-24 06:28N 31°22' E 121°28'0 0.0
2016-Aug-24 04:31N 31°22' E 121°28'0 0.0
2016-Aug-24 03:25N 31°22' E 121°28'0 0.0
2016-Aug-24 02:30N 31°22' E 121°28'0 0.0
2016-Aug-24 01:21N 31°22' E 121°28'0 0.0
2016-Aug-24 00:33N 31°22' E 121°28'100213.6
2016-Aug-24 00:05N 29°46' E 122°04'7 9.5
2016-Aug-23 23:21N 29°52' E 122°08'6 8.0
2016-Aug-23 22:33N 29°57' E 122°04'8914.3
2016-Aug-23 16:18N 31°21' E 121°26'6 1.2
2016-Aug-23 11:33N 31°26' E 121°29'10 4.6
2016-Aug-23 09:26N 31°21' E 121°39'6 6.5
2016-Aug-23 08:33N 31°23' E 121°33'3 2.8
2016-Aug-23 07:33N 31°21' E 121°32'1 0.7
2016-Aug-23 06:31N 31°20' E 121°32'1 1.0
2016-Aug-23 05:33N 31°20' E 121°33'5 4.2
2016-Aug-23 04:28N 31°16' E 121°32'8 1.2
2016-Aug-22 22:13N 31°21' E 121°26'2 2.2
2016-Aug-22 21:29N 31°22' E 121°28'7 6.8
2016-Aug-22 20:24N 31°16' E 121°32'722.2
2016-Aug-22 20:05N 31°22' E 121°28'0 0.0
2016-Aug-22 19:29N 31°22' E 121°28'0 0.1
2016-Aug-22 18:29N 31°22' E 121°28'799.4
2016-Aug-22 18:24N 31°16' E 121°32'7 7.8
2016-Aug-22 17:28N 31°22' E 121°28'0 0.0
2016-Aug-22 16:10N 31°22' E 121°28'0 0.0
2016-Aug-22 15:31N 31°22' E 121°28'7 6.2
2016-Aug-22 14:21N 31°16' E 121°32'757.0
2016-Aug-22 14:13N 31°22' E 121°28'7 8.8
2016-Aug-22 13:24N 31°16' E 121°32'726.2
2016-Aug-22 13:07N 31°22' E 121°28'0 0.0
2016-Aug-22 12:28N 31°22' E 121°28'0 0.0
2016-Aug-22 11:28N 31°22' E 121°28'7103.3
2016-Aug-22 11:24N 31°16' E 121°32'7 7.8
2016-Aug-22 10:28N 31°22' E 121°28'740.7
2016-Aug-22 10:17N 31°16' E 121°32'7 8.8
2016-Aug-22 09:28N 31°22' E 121°28'0 0.0
2016-Aug-22 08:16N 31°22' E 121°28'7285.0
2016-Aug-22 08:14N 31°15' E 121°32'7 9.4
2016-Aug-22 07:28N 31°22' E 121°28'722.9
2016-Aug-22 07:08N 31°15' E 121°33'4 6.6
2016-Aug-22 06:33N 31°19' E 121°34'512.3
2016-Aug-22 06:07N 31°22' E 121°28'4 2.5
2016-Aug-22 04:27N 31°20' E 121°32'0 0.1
2016-Aug-22 03:30N 31°20' E 121°32'4101.1
2016-Aug-22 03:28N 31°22' E 121°28'4 4.5
2016-Aug-22 02:33N 31°20' E 121°32'446.1
2016-Aug-22 02:28N 31°22' E 121°28'0 0.1
2016-Aug-22 01:34N 31°22' E 121°28'3160.3
2016-Aug-22 01:32N 31°21' E 121°31'0 0.0
2016-Aug-22 00:32N 31°21' E 121°31'338.2
2016-Aug-22 00:28N 31°22' E 121°28'3 3.1
2016-Aug-21 23:32N 31°21' E 121°31'3120.8
2016-Aug-21 23:31N 31°22' E 121°28'3 2.8
2016-Aug-21 22:29N 31°21' E 121°31'3 8.9
2016-Aug-21 22:10N 31°22' E 121°28'3 3.9
2016-Aug-21 21:26N 31°21' E 121°31'324.0
2016-Aug-21 21:19N 31°22' E 121°28'3 3.8
2016-Aug-21 20:33N 31°21' E 121°31'314.7
2016-Aug-21 20:22N 31°22' E 121°28'3 3.4
2016-Aug-21 19:32N 31°21' E 121°31'3 9.0
2016-Aug-21 19:13N 31°22' E 121°28'0 0.0
2016-Aug-21 18:28N 31°22' E 121°28'3270.3
2016-Aug-21 18:27N 31°21' E 121°31'3 3.2
2016-Aug-21 17:33N 31°22' E 121°28'3513.3
2016-Aug-21 17:33N 31°21' E 121°31'3 2.4
2016-Aug-21 16:22N 31°22' E 121°28'3201.8
2016-Aug-21 16:21N 31°21' E 121°31'0 0.0
2016-Aug-21 15:33N 31°21' E 121°31'3 9.9
2016-Aug-21 15:16N 31°22' E 121°28'3 3.5
2016-Aug-21 14:28N 31°21' E 121°31'313.4
2016-Aug-21 14:15N 31°22' E 121°28'0 0.1
2016-Aug-21 13:33N 31°22' E 121°28'369.7
2016-Aug-21 13:31N 31°21' E 121°31'4 4.6
2016-Aug-21 12:33N 31°17' E 121°34'763.3
2016-Aug-21 12:27N 31°22' E 121°28'84618245.3
2016-Aug-21 12:24N 21°19' E 110°25'0 0.0
2016-Aug-21 11:33N 21°19' E 110°25'846117185.1
2016-Aug-21 11:33N 31°22' E 121°28'739.5
2016-Aug-21 11:22N 31°16' E 121°32'7 8.9
2016-Aug-21 10:33N 31°22' E 121°28'7274.2
2016-Aug-21 10:32N 31°15' E 121°32'7 7.1
2016-Aug-21 09:30N 31°22' E 121°28'0 0.0
2016-Aug-21 08:33N 31°22' E 121°28'0 0.0
2016-Aug-21 07:30N 31°22' E 121°28'0 0.0
2016-Aug-21 06:30N 31°22' E 121°28'0 0.0
2016-Aug-21 05:33N 31°22' E 121°28'0 0.0
2016-Aug-21 04:30N 31°22' E 121°28'735.7
2016-Aug-21 04:18N 31°16' E 121°32'7 9.7
2016-Aug-21 03:33N 31°22' E 121°28'716.0
2016-Aug-21 03:06N 31°15' E 121°32'0 0.0
2016-Aug-21 01:21N 31°16' E 121°32'0 0.0
2016-Aug-21 00:21N 31°16' E 121°32'0 0.1
2016-Aug-20 23:33N 31°16' E 121°32'0 0.0
2016-Aug-20 22:27N 31°16' E 121°32'0 0.0
2016-Aug-20 21:33N 31°16' E 121°32'0 0.0
2016-Aug-20 20:06N 31°16' E 121°32'0 0.0
2016-Aug-20 19:12N 31°16' E 121°32'0 0.0
2016-Aug-20 16:23N 31°16' E 121°32'0 0.0
2016-Aug-20 12:11N 31°16' E 121°32'8451329.7
2016-Aug-20 11:33N 21°19' E 110°25'84536654.3
2016-Aug-20 11:32N 31°16' E 121°32'845852.7
2016-Aug-20 10:32N 21°19' E 110°25'84576060.7
2016-Aug-20 10:31N 31°16' E 121°32'0 0.0
2016-Aug-20 09:22N 31°16' E 121°32'0 0.0
2016-Aug-20 08:17N 31°16' E 121°32'0 0.0
2016-Aug-20 07:28N 31°16' E 121°32'0 0.0
2016-Aug-19 22:13N 31°15' E 121°32'0 0.0
2016-Aug-19 14:22N 31°15' E 121°32'6 5.9
2016-Aug-19 13:19N 31°11' E 121°28'4 4.2
2016-Aug-19 12:17N 31°07' E 121°28'0 0.0
2016-Aug-19 10:26N 31°07' E 121°28'5 1.3
2016-Aug-19 06:20N 31°12' E 121°29'4 5.1
2016-Aug-19 05:33N 31°15' E 121°32'6 5.9
2016-Aug-19 04:33N 31°21' E 121°31'5 5.3
2016-Aug-19 03:33N 31°22' E 121°37'85352.1
2016-Aug-18 11:10N 21°19' E 110°25'0 0.0
2016-Aug-18 10:27N 21°19' E 110°25'0 0.0
2016-Aug-18 09:33N 21°19' E 110°25'0 0.0
2016-Aug-18 08:31N 21°19' E 110°25'0 0.1
2016-Aug-18 07:32N 21°19' E 110°25'0 0.1
2016-Aug-18 06:33N 21°19' E 110°25'0 0.1
2016-Aug-18 05:33N 21°19' E 110°25'0 0.0
2016-Aug-18 04:31N 21°19' E 110°25'0 0.0
2016-Aug-18 03:33N 21°19' E 110°25'0 0.0
2016-Aug-18 00:33N 21°19' E 110°25'85492.2
2016-Aug-17 15:18N 31°17' E 121°44'4 5.2
2016-Aug-17 14:33N 31°20' E 121°41'5 5.4
2016-Aug-17 13:33N 31°23' E 121°36'4 4.4
2016-Aug-17 12:33N 31°21' E 121°31'6 6.2
2016-Aug-17 11:33N 31°15' E 121°32'8453408.9
2016-Aug-17 11:18N 21°19' E 110°25'0 0.0
2016-Aug-17 10:31N 21°19' E 110°25'8388721.3
2016-Aug-17 10:25N 31°10' E 121°28'6 1.0
2016-Aug-17 04:33N 31°15' E 121°31'6 5.9
2016-Aug-17 03:33N 31°21' E 121°32'4 4.3
2016-Aug-17 02:33N 31°23' E 121°36'85256.0
2016-Aug-16 11:20N 21°19' E 110°25'0 0.0
2016-Aug-16 10:23N 21°19' E 110°25'1126114.0
2016-Aug-16 00:30N 38°58' E 117°47'2 1.5
2016-Aug-15 23:26N 38°59' E 117°45'0 0.0
2016-Aug-15 22:33N 38°59' E 117°45'0 0.0
2016-Aug-15 21:30N 38°59' E 117°45'  

Dump ship's entire track history